createdAt,value
2022-11-28T00:01:58.091Z,5.57
2022-11-28T00:04:59.946Z,5.55
2022-11-28T00:08:16.060Z,5.62
2022-11-28T00:11:25.020Z,5.62
2022-11-28T00:14:40.300Z,5.67
2022-11-28T00:17:56.019Z,5.76
2022-11-28T00:21:15.081Z,5.76
2022-11-28T00:24:16.913Z,5.72
2022-11-28T00:27:32.035Z,5.61
2022-11-28T00:30:38.110Z,5.51
2022-11-28T00:33:55.064Z,5.44
2022-11-28T00:37:03.786Z,5.45
2022-11-28T00:40:13.126Z,5.60
2022-11-28T00:43:21.706Z,5.68
2022-11-28T00:46:31.077Z,5.72
2022-11-28T00:49:39.881Z,5.75
2022-11-28T00:52:49.170Z,5.75
2022-11-28T00:55:57.617Z,5.80
2022-11-28T00:59:07.159Z,5.78
2022-11-28T01:02:19.571Z,5.83
2022-11-28T01:05:29.058Z,5.87
2022-11-28T01:08:38.302Z,5.78
2022-11-28T01:11:48.037Z,5.79
2022-11-28T01:15:03.061Z,5.84
2022-11-28T01:18:18.029Z,5.81
2022-11-28T01:21:33.046Z,5.81
2022-11-28T01:24:41.347Z,5.78
2022-11-28T01:27:56.083Z,5.67
2022-11-28T01:31:15.126Z,5.70
2022-11-28T01:34:23.678Z,5.70
2022-11-28T01:37:32.025Z,5.76
2022-11-28T01:40:45.385Z,5.79
2022-11-28T01:44:13.083Z,5.79
2022-11-28T01:47:34.097Z,5.81
2022-11-28T01:50:37.769Z,5.79
2022-11-28T01:53:54.042Z,5.78
2022-11-28T01:57:00.682Z,5.68
2022-11-28T02:00:20.079Z,5.64
2022-11-28T02:03:35.050Z,5.57
2022-11-28T02:06:50.120Z,5.60
2022-11-28T02:09:59.059Z,5.52
2022-11-28T02:13:24.897Z,5.44
2022-11-28T02:17:03.094Z,5.55
2022-11-28T02:20:39.143Z,5.62
2022-11-28T02:24:06.497Z,5.58
2022-11-28T02:27:46.196Z,5.51
2022-11-28T02:31:07.142Z,5.44
2022-11-28T02:34:30.780Z,5.40
2022-11-28T02:38:15.057Z,5.41
2022-11-28T02:41:53.118Z,5.45
2022-11-28T02:45:12.095Z,5.47
2022-11-28T02:48:38.097Z,5.44
2022-11-28T02:51:43.959Z,5.53
2022-11-28T02:55:01.103Z,5.52
2022-11-28T02:58:09.146Z,5.53
2022-11-28T03:01:23.346Z,5.52
2022-11-28T03:05:00.309Z,5.46
2022-11-28T03:08:22.378Z,5.36
2022-11-28T03:11:53.094Z,5.32
2022-11-28T03:15:13.070Z,5.44
2022-11-28T03:18:31.189Z,5.51
2022-11-28T03:22:11.188Z,5.56
2022-11-28T03:25:26.951Z,5.48
2022-11-28T03:29:02.229Z,5.40
2022-11-28T03:32:17.815Z,5.41
2022-11-28T03:35:37.113Z,5.37
2022-11-28T03:38:51.098Z,5.44
2022-11-28T03:42:17.133Z,5.48
2022-11-28T03:45:38.138Z,5.55
2022-11-28T03:48:52.196Z,5.53
2022-11-28T03:52:14.114Z,5.34
2022-11-28T03:55:37.237Z,5.35
2022-11-28T03:59:07.209Z,5.22
2022-11-28T04:02:31.279Z,5.25
2022-11-28T04:05:57.099Z,5.36
2022-11-28T04:09:14.707Z,5.33
2022-11-28T04:12:42.207Z,5.41
2022-11-28T04:16:04.904Z,5.54
2022-11-28T04:19:30.161Z,5.51
2022-11-28T04:22:38.391Z,5.48
2022-11-28T04:26:02.111Z,5.51
2022-11-28T04:29:22.233Z,5.37
2022-11-28T04:32:36.009Z,5.36
2022-11-28T04:35:55.134Z,5.46
2022-11-28T04:39:06.154Z,5.42
2022-11-28T04:42:28.114Z,5.38
2022-11-28T04:45:41.253Z,5.27
2022-11-28T04:48:56.157Z,5.23
2022-11-28T04:52:18.100Z,5.01
2022-11-28T04:55:49.102Z,5.08
2022-11-28T04:58:57.129Z,5.09
2022-11-28T05:02:13.150Z,5.15
2022-11-28T05:05:33.086Z,5.19
2022-11-28T05:08:41.144Z,5.10
2022-11-28T05:11:49.766Z,5.16
2022-11-28T05:14:58.198Z,5.03
2022-11-28T05:18:13.706Z,5.10
2022-11-28T05:21:28.217Z,5.19
2022-11-28T05:24:32.347Z,5.21
2022-11-28T05:27:47.210Z,5.17
2022-11-28T05:30:59.451Z,5.11
2022-11-28T05:34:14.146Z,5.18
2022-11-28T05:37:22.144Z,5.28
2022-11-28T05:40:38.123Z,5.23
2022-11-28T05:43:46.731Z,5.01
2022-11-28T05:46:55.209Z,4.81
2022-11-28T05:50:05.618Z,4.81
2022-11-28T05:53:20.185Z,4.90
2022-11-28T05:56:29.112Z,4.99
2022-11-28T05:59:44.461Z,5.03
2022-11-28T06:02:49.839Z,5.09
2022-11-28T06:06:04.204Z,4.96
2022-11-28T06:09:06.835Z,4.93
2022-11-28T06:12:21.162Z,4.88
2022-11-28T06:15:30.882Z,4.95
2022-11-28T06:18:54.162Z,4.85
2022-11-28T06:22:09.154Z,4.85
2022-11-28T06:25:24.223Z,4.96
2022-11-28T06:28:33.326Z,4.93
2022-11-28T06:31:41.929Z,4.94
2022-11-28T06:34:50.226Z,4.94
2022-11-28T06:38:07.939Z,4.95
2022-11-28T06:41:15.032Z,4.87
2022-11-28T06:44:30.262Z,5.01
2022-11-28T06:47:45.515Z,5.03
2022-11-28T06:50:54.687Z,5.16
2022-11-28T06:54:09.181Z,5.13
2022-11-28T06:57:11.414Z,5.11
2022-11-28T07:00:27.361Z,5.09
2022-11-28T07:03:29.544Z,5.18
2022-11-28T07:06:44.245Z,5.20
2022-11-28T07:09:52.278Z,5.31
2022-11-28T07:13:08.334Z,5.60
2022-11-28T07:16:24.303Z,5.77
2022-11-28T07:19:39.612Z,5.43
2022-11-28T07:22:48.246Z,5.28
2022-11-28T07:26:06.297Z,5.12
2022-11-28T07:29:23.265Z,5.19
2022-11-28T07:32:38.513Z,5.26
2022-11-28T07:35:40.385Z,5.17
2022-11-28T07:38:57.319Z,5.39
2022-11-28T07:42:12.250Z,5.43
2022-11-28T07:45:14.115Z,6.13
2022-11-28T07:48:29.256Z,5.89
2022-11-28T07:51:39.274Z,6.73
2022-11-28T07:54:50.144Z,7.01
2022-11-28T07:58:05.270Z,6.60
2022-11-28T08:01:20.485Z,6.34
2022-11-28T08:04:35.307Z,5.68
2022-11-28T08:07:37.288Z,6.30
2022-11-28T08:10:53.323Z,5.91
2022-11-28T08:14:02.171Z,5.80
2022-11-28T08:17:18.741Z,6.28
2022-11-28T08:20:27.303Z,6.38
2022-11-28T08:23:43.259Z,5.78
2022-11-28T08:26:51.317Z,6.07
2022-11-28T08:30:08.347Z,6.49
2022-11-28T08:33:17.316Z,6.16
2022-11-28T08:36:32.258Z,7.04
2022-11-28T08:39:34.202Z,6.87
2022-11-28T08:42:50.282Z,6.99
2022-11-28T08:45:52.384Z,7.09
2022-11-28T08:49:07.402Z,7.08
2022-11-28T08:52:16.229Z,6.74
2022-11-28T08:55:31.874Z,6.22
2022-11-28T08:58:41.226Z,6.74
2022-11-28T09:01:52.800Z,8.03
2022-11-28T09:05:07.228Z,7.09
2022-11-28T09:08:13.727Z,6.90
2022-11-28T09:11:31.651Z,6.29
2022-11-28T09:14:33.614Z,5.73
2022-11-28T09:17:55.220Z,5.49
2022-11-28T09:21:01.200Z,5.56
2022-11-28T09:24:16.222Z,5.55
2022-11-28T09:27:24.253Z,5.50
2022-11-28T09:30:35.739Z,5.53
2022-11-28T09:33:48.416Z,5.53
2022-11-28T09:36:59.712Z,5.62
2022-11-28T09:40:13.714Z,5.65
2022-11-28T09:43:38.295Z,5.70
2022-11-28T09:46:42.556Z,5.47
2022-11-28T09:50:04.232Z,5.38
2022-11-28T09:53:34.713Z,5.50
2022-11-28T09:56:53.222Z,5.59
2022-11-28T10:00:01.388Z,5.47
2022-11-28T10:03:30.209Z,5.48
2022-11-28T10:06:55.507Z,5.36
2022-11-28T10:10:26.283Z,5.51
2022-11-28T10:14:11.295Z,5.27
2022-11-28T10:17:43.267Z,5.19
2022-11-28T10:21:03.104Z,5.27
2022-11-28T10:24:22.338Z,5.24
2022-11-28T10:27:35.428Z,5.40
2022-11-28T10:30:49.339Z,5.38
2022-11-28T10:34:17.594Z,5.43
2022-11-28T10:37:37.247Z,5.78
2022-11-28T10:41:00.084Z,5.66
2022-11-28T10:44:25.298Z,6.02
2022-11-28T10:48:37.927Z,6.14
2022-11-28T10:51:55.332Z,5.84
2022-11-28T10:55:25.283Z,6.29
2022-11-28T10:59:02.444Z,6.49
2022-11-28T11:02:26.287Z,6.42
2022-11-28T11:05:36.925Z,6.18
2022-11-28T11:08:47.302Z,5.95
2022-11-28T11:12:05.341Z,5.86
2022-11-28T11:15:19.422Z,5.85
2022-11-28T11:18:57.445Z,5.87
2022-11-28T11:22:11.348Z,5.82
2022-11-28T11:25:19.898Z,5.97
2022-11-28T11:28:43.358Z,5.69
2022-11-28T11:31:53.563Z,5.61
2022-11-28T11:35:03.313Z,5.73
2022-11-28T11:38:38.434Z,6.00
2022-11-28T11:41:57.352Z,6.09
2022-11-28T11:45:32.393Z,5.99
2022-11-28T11:48:43.694Z,5.74
2022-11-28T11:52:03.490Z,6.03
2022-11-28T11:55:23.302Z,6.28
2022-11-28T11:58:47.374Z,6.94
2022-11-28T12:02:02.383Z,6.58
2022-11-28T12:05:41.537Z,7.13
2022-11-28T12:09:11.386Z,6.99
2022-11-28T12:12:33.331Z,6.45
2022-11-28T12:15:51.181Z,6.63
2022-11-28T12:19:36.528Z,6.89
2022-11-28T12:23:07.610Z,7.50
2022-11-28T12:26:31.818Z,7.31
2022-11-28T12:30:01.365Z,8.36
2022-11-28T12:33:39.494Z,8.56
2022-11-28T12:37:17.369Z,7.95
2022-11-28T12:40:57.341Z,10.25
2022-11-28T12:44:26.405Z,10.92
2022-11-28T12:47:57.322Z,9.96
2022-11-28T12:51:18.538Z,9.49
2022-11-28T12:54:52.446Z,8.63
2022-11-28T12:58:12.335Z,8.66
2022-11-28T13:02:09.906Z,9.15
2022-11-28T13:05:22.334Z,9.04
2022-11-28T13:08:57.419Z,7.51
2022-11-28T13:12:25.398Z,6.89
2022-11-28T13:15:52.396Z,6.58
2022-11-28T13:19:19.387Z,6.18
2022-11-28T13:22:46.376Z,6.07
2022-11-28T13:26:16.497Z,6.16
2022-11-28T13:29:51.385Z,6.09
2022-11-28T13:33:10.398Z,6.21
2022-11-28T13:40:30.275Z,6.12
2022-11-28T13:44:08.372Z,6.15
2022-11-28T13:47:29.527Z,6.14
2022-11-28T13:50:41.432Z,6.36
2022-11-28T13:54:26.379Z,6.07
2022-11-28T13:57:38.488Z,6.13
2022-11-28T14:00:47.384Z,5.91
2022-11-28T14:04:11.799Z,6.09
2022-11-28T14:07:34.567Z,5.88
2022-11-28T14:11:27.809Z,6.05
2022-11-28T14:14:56.958Z,5.86
2022-11-28T14:18:54.917Z,5.71
2022-11-28T14:22:22.390Z,5.79
2022-11-28T14:25:31.099Z,5.69
2022-11-28T14:28:51.507Z,6.42
2022-11-28T14:32:27.985Z,7.01
2022-11-28T14:35:52.373Z,6.88
2022-11-28T14:39:31.459Z,6.71
2022-11-28T14:43:01.761Z,6.51
2022-11-28T14:46:30.516Z,6.84
2022-11-28T14:49:39.678Z,6.60
2022-11-28T14:52:51.459Z,7.46
2022-11-28T14:56:27.455Z,7.18
2022-11-28T14:59:45.407Z,7.12
2022-11-28T15:03:08.921Z,6.25
2022-11-28T15:06:30.498Z,6.46
2022-11-28T15:09:51.366Z,6.27
2022-11-28T15:13:26.386Z,6.29
2022-11-28T15:16:38.789Z,6.24
2022-11-28T15:20:01.465Z,6.34
2022-11-28T15:23:22.271Z,6.42
2022-11-28T15:26:36.367Z,6.53
2022-11-28T15:29:56.090Z,7.45
2022-11-28T15:33:12.372Z,7.53
2022-11-28T15:36:34.413Z,6.59
2022-11-28T15:39:47.591Z,6.27
2022-11-28T15:43:06.768Z,5.57
2022-11-28T15:46:35.452Z,5.59
2022-11-28T15:49:50.406Z,5.17
2022-11-28T15:53:10.954Z,5.16
2022-11-28T15:56:15.616Z,5.19
2022-11-28T15:59:31.668Z,4.90
2022-11-28T16:02:42.454Z,4.65
2022-11-28T16:06:01.386Z,4.38
2022-11-28T16:09:13.499Z,4.44
2022-11-28T16:12:22.419Z,4.47
2022-11-28T16:15:32.482Z,4.26
2022-11-28T16:18:46.219Z,4.05
2022-11-28T16:22:06.506Z,4.07
2022-11-28T16:25:31.476Z,4.03
2022-11-28T16:28:37.097Z,4.08
2022-11-28T16:31:51.448Z,4.23
2022-11-28T16:34:55.057Z,4.57
2022-11-28T16:38:12.406Z,4.50
2022-11-28T16:41:29.395Z,4.46
2022-11-28T16:44:38.231Z,4.29
2022-11-28T16:47:46.602Z,4.02
2022-11-28T16:51:34.499Z,3.92
2022-11-28T16:54:43.438Z,3.53
2022-11-28T16:57:56.949Z,3.47
2022-11-28T17:01:11.798Z,3.60
2022-11-28T17:04:33.451Z,3.58
2022-11-28T17:07:42.298Z,3.84
2022-11-28T17:10:57.434Z,3.66
2022-11-28T17:14:02.565Z,3.56
2022-11-28T17:17:20.410Z,3.52
2022-11-28T17:20:35.454Z,3.47
2022-11-28T17:23:44.371Z,3.38
2022-11-28T17:27:00.426Z,3.42
2022-11-28T17:30:21.485Z,3.37
2022-11-28T17:33:23.398Z,3.64
2022-11-28T17:36:38.455Z,3.38
2022-11-28T17:39:47.558Z,3.36
2022-11-28T17:43:02.543Z,3.31
2022-11-28T17:46:10.468Z,3.25
2022-11-28T17:49:26.428Z,3.29
2022-11-28T17:52:34.429Z,3.25
2022-11-28T17:55:48.557Z,3.29
2022-11-28T17:58:57.467Z,3.24
2022-11-28T18:02:12.492Z,3.08
2022-11-28T18:05:21.442Z,3.10
2022-11-28T18:08:30.214Z,3.19
2022-11-28T18:11:39.541Z,3.21
2022-11-28T18:14:54.466Z,3.19
2022-11-28T18:18:16.458Z,3.21
2022-11-28T18:21:31.467Z,3.22
2022-11-28T18:24:39.990Z,3.29
2022-11-28T18:27:48.518Z,3.31
2022-11-28T18:31:04.427Z,3.29
2022-11-28T18:34:14.494Z,3.28
2022-11-28T18:37:29.570Z,3.07
2022-11-28T18:40:38.694Z,3.10
2022-11-28T18:43:47.243Z,3.15
2022-11-28T18:46:55.437Z,3.17
2022-11-28T18:50:11.476Z,3.17
2022-11-28T18:53:26.507Z,3.16
2022-11-28T18:56:42.445Z,3.21
2022-11-28T18:59:55.074Z,3.21
2022-11-28T19:03:04.598Z,3.20
2022-11-28T19:06:19.481Z,3.15
2022-11-28T19:09:28.522Z,3.18
2022-11-28T19:12:37.390Z,3.15
2022-11-28T19:15:46.558Z,3.14
2022-11-28T19:19:02.456Z,3.11
2022-11-28T19:22:11.388Z,3.09
2022-11-28T19:25:26.473Z,3.09
2022-11-28T19:28:28.366Z,3.02
2022-11-28T19:31:45.533Z,3.01
2022-11-28T19:35:00.465Z,2.97
2022-11-28T19:38:15.479Z,2.91
2022-11-28T19:41:19.801Z,2.96
2022-11-28T19:44:34.507Z,2.99
2022-11-28T19:47:36.512Z,3.02
2022-11-28T19:50:56.479Z,3.08
2022-11-28T19:54:06.574Z,3.05
2022-11-28T19:57:21.502Z,3.09
2022-11-28T20:00:23.418Z,3.14
2022-11-28T20:03:40.434Z,3.22
2022-11-28T20:06:48.482Z,3.18
2022-11-28T20:10:03.509Z,3.19
2022-11-28T20:13:12.105Z,3.26
2022-11-28T20:16:26.584Z,3.27
2022-11-28T20:19:41.976Z,3.09
2022-11-28T20:22:51.143Z,3.04
2022-11-28T20:25:59.513Z,3.10
2022-11-28T20:29:15.478Z,3.12
2022-11-28T20:32:24.509Z,2.99
2022-11-28T20:35:33.030Z,3.03
2022-11-28T20:38:47.485Z,3.00
2022-11-28T20:42:02.527Z,2.89
2022-11-28T20:45:11.556Z,2.97
2022-11-28T20:48:20.178Z,3.02
2022-11-28T20:51:30.506Z,3.13
2022-11-28T20:54:39.133Z,3.14
2022-11-28T20:57:47.591Z,3.26
2022-11-28T21:00:56.443Z,3.31
2022-11-28T21:04:04.543Z,3.17
2022-11-28T21:07:19.531Z,3.17
2022-11-28T21:10:27.542Z,3.30
2022-11-28T21:13:36.205Z,3.37
2022-11-28T21:16:50.647Z,3.49
2022-11-28T21:20:05.582Z,3.50
2022-11-28T21:23:22.494Z,3.52
2022-11-28T21:26:30.101Z,3.54
2022-11-28T21:29:46.737Z,3.51
2022-11-28T21:32:48.658Z,3.45
2022-11-28T21:36:06.534Z,3.46
2022-11-28T21:39:13.073Z,3.51
2022-11-28T21:42:27.556Z,3.53
2022-11-28T21:45:35.507Z,3.48
2022-11-28T21:48:50.510Z,3.54
2022-11-28T21:51:59.630Z,3.47
2022-11-28T21:55:15.508Z,3.42
2022-11-28T21:58:20.122Z,3.41
2022-11-28T22:01:37.586Z,3.41
2022-11-28T22:04:52.507Z,3.41
2022-11-28T22:08:01.383Z,3.41
2022-11-28T22:11:10.517Z,3.40
2022-11-28T22:14:19.127Z,3.41
2022-11-28T22:17:27.522Z,3.39
2022-11-28T22:20:52.896Z,3.35
2022-11-28T22:24:08.170Z,3.38
2022-11-28T22:27:23.490Z,3.42
2022-11-28T22:30:31.530Z,3.42
2022-11-28T22:33:40.378Z,3.39
2022-11-28T22:36:48.520Z,3.34
2022-11-28T22:39:57.139Z,3.34
2022-11-28T22:43:05.524Z,3.38
2022-11-28T22:46:21.538Z,3.38
2022-11-28T22:49:23.358Z,3.39
2022-11-28T22:52:38.553Z,3.43
2022-11-28T22:55:40.382Z,3.43
2022-11-28T22:58:58.526Z,3.40
2022-11-28T23:02:07.606Z,3.37
2022-11-28T23:05:16.207Z,3.37
2022-11-28T23:08:30.599Z,3.38
2022-11-28T23:11:46.504Z,3.37
2022-11-28T23:14:48.885Z,3.35
2022-11-28T23:18:03.539Z,3.39
2022-11-28T23:21:19.546Z,3.19
2022-11-28T23:24:34.541Z,3.17
2022-11-28T23:27:36.482Z,3.24
2022-11-28T23:30:51.582Z,3.18
2022-11-28T23:33:53.733Z,3.26
2022-11-28T23:37:08.575Z,3.21
2022-11-28T23:40:10.985Z,3.11
2022-11-28T23:43:25.564Z,3.04
2022-11-28T23:46:28.983Z,2.96
2022-11-28T23:49:44.583Z,2.79
2022-11-28T23:52:46.401Z,2.81
2022-11-28T23:56:01.559Z,2.72
2022-11-28T23:59:06.462Z,2.87
